sensor_id;sensor_type;location;lat;lon;timestamp;temperature;humidity
69189;DHT22;56302;52.322;5.926;2023-05-10T00:01:11;12.90;95.00
69189;DHT22;56302;52.322;5.926;2023-05-10T00:03:36;12.90;95.00
69189;DHT22;56302;52.322;5.926;2023-05-10T00:06:02;12.90;95.10
69189;DHT22;56302;52.322;5.926;2023-05-10T00:08:27;12.80;95.20
69189;DHT22;56302;52.322;5.926;2023-05-10T00:10:53;12.90;95.10
69189;DHT22;56302;52.322;5.926;2023-05-10T00:13:19;12.80;95.10
69189;DHT22;56302;52.322;5.926;2023-05-10T00:15:44;12.90;95.10
69189;DHT22;56302;52.322;5.926;2023-05-10T00:18:10;12.80;95.20
69189;DHT22;56302;52.322;5.926;2023-05-10T00:20:36;12.80;95.20
69189;DHT22;56302;52.322;5.926;2023-05-10T00:23:01;12.80;95.20
69189;DHT22;56302;52.322;5.926;2023-05-10T00:25:27;12.80;95.30
69189;DHT22;56302;52.322;5.926;2023-05-10T00:27:52;12.80;95.40
69189;DHT22;56302;52.322;5.926;2023-05-10T00:30:20;12.70;95.50
69189;DHT22;56302;52.322;5.926;2023-05-10T00:32:46;12.70;95.40
69189;DHT22;56302;52.322;5.926;2023-05-10T00:35:13;12.70;95.40
69189;DHT22;56302;52.322;5.926;2023-05-10T00:37:39;12.70;95.50
69189;DHT22;56302;52.322;5.926;2023-05-10T00:40:05;12.70;95.40
69189;DHT22;56302;52.322;5.926;2023-05-10T00:42:31;12.70;95.20
69189;DHT22;56302;52.322;5.926;2023-05-10T00:44:57;12.70;95.30
69189;DHT22;56302;52.322;5.926;2023-05-10T00:47:23;12.70;95.30
69189;DHT22;56302;52.322;5.926;2023-05-10T00:49:48;12.70;95.30
69189;DHT22;56302;52.322;5.926;2023-05-10T00:52:14;12.70;95.30
69189;DHT22;56302;52.322;5.926;2023-05-10T00:54:40;12.70;95.40
69189;DHT22;56302;52.322;5.926;2023-05-10T00:57:06;12.70;95.60
69189;DHT22;56302;52.322;5.926;2023-05-10T00:59:32;12.70;95.60
69189;DHT22;56302;52.322;5.926;2023-05-10T01:01:58;12.70;95.50
69189;DHT22;56302;52.322;5.926;2023-05-10T01:04:23;12.70;95.60
69189;DHT22;56302;52.322;5.926;2023-05-10T01:06:51;12.60;95.60
69189;DHT22;56302;52.322;5.926;2023-05-10T01:09:18;12.60;95.60
69189;DHT22;56302;52.322;5.926;2023-05-10T01:11:44;12.60;95.70
69189;DHT22;56302;52.322;5.926;2023-05-10T01:14:10;12.60;95.70
69189;DHT22;56302;52.322;5.926;2023-05-10T01:16:37;12.60;95.70
69189;DHT22;56302;52.322;5.926;2023-05-10T01:19:17;12.60;95.70
69189;DHT22;56302;52.322;5.926;2023-05-10T01:30:56;12.60;95.90
69189;DHT22;56302;52.322;5.926;2023-05-10T01:33:47;12.60;96.00
69189;DHT22;56302;52.322;5.926;2023-05-10T01:36:31;12.60;96.00
69189;DHT22;56302;52.322;5.926;2023-05-10T01:39:03;12.60;96.10
69189;DHT22;56302;52.322;5.926;2023-05-10T01:42:00;12.60;96.00
69189;DHT22;56302;52.322;5.926;2023-05-10T01:44:46;12.60;96.10
69189;DHT22;56302;52.322;5.926;2023-05-10T01:47:29;12.50;96.20
69189;DHT22;56302;52.322;5.926;2023-05-10T01:49:57;12.60;96.20
69189;DHT22;56302;52.322;5.926;2023-05-10T01:52:31;12.60;96.30
69189;DHT22;56302;52.322;5.926;2023-05-10T01:55:18;12.50;96.40
69189;DHT22;56302;52.322;5.926;2023-05-10T01:57:44;12.50;96.50
69189;DHT22;56302;52.322;5.926;2023-05-10T02:00:12;12.50;96.60
69189;DHT22;56302;52.322;5.926;2023-05-10T02:02:40;12.50;96.80
69189;DHT22;56302;52.322;5.926;2023-05-10T02:05:08;12.50;97.20
69189;DHT22;56302;52.322;5.926;2023-05-10T02:07:36;12.40;97.40
69189;DHT22;56302;52.322;5.926;2023-05-10T02:10:04;12.50;97.50
69189;DHT22;56302;52.322;5.926;2023-05-10T02:12:31;12.40;97.40
69189;DHT22;56302;52.322;5.926;2023-05-10T02:15:01;12.40;97.50
69189;DHT22;56302;52.322;5.926;2023-05-10T02:17:28;12.40;97.50
69189;DHT22;56302;52.322;5.926;2023-05-10T02:19:56;12.40;97.50
69189;DHT22;56302;52.322;5.926;2023-05-10T02:22:23;12.40;97.40
69189;DHT22;56302;52.322;5.926;2023-05-10T02:24:49;12.40;97.60
69189;DHT22;56302;52.322;5.926;2023-05-10T02:27:17;12.40;97.70
69189;DHT22;56302;52.322;5.926;2023-05-10T02:29:45;12.40;97.70
69189;DHT22;56302;52.322;5.926;2023-05-10T02:32:12;12.40;97.80
69189;DHT22;56302;52.322;5.926;2023-05-10T02:34:38;12.40;97.90
69189;DHT22;56302;52.322;5.926;2023-05-10T02:37:05;12.40;98.00
69189;DHT22;56302;52.322;5.926;2023-05-10T02:39:31;12.40;98.00
69189;DHT22;56302;52.322;5.926;2023-05-10T02:41:58;12.40;98.10
69189;DHT22;56302;52.322;5.926;2023-05-10T02:44:27;12.40;98.10
69189;DHT22;56302;52.322;5.926;2023-05-10T02:46:54;12.40;98.20
69189;DHT22;56302;52.322;5.926;2023-05-10T02:49:21;12.40;98.20
69189;DHT22;56302;52.322;5.926;2023-05-10T02:51:58;12.40;98.30
69189;DHT22;56302;52.322;5.926;2023-05-10T02:54:30;12.40;98.40
69189;DHT22;56302;52.322;5.926;2023-05-10T02:56:58;12.40;98.50
69189;DHT22;56302;52.322;5.926;2023-05-10T02:59:26;12.40;98.60
69189;DHT22;56302;52.322;5.926;2023-05-10T03:01:52;12.40;98.60
69189;DHT22;56302;52.322;5.926;2023-05-10T03:04:17;12.40;98.70
69189;DHT22;56302;52.322;5.926;2023-05-10T03:06:43;12.40;98.80
69189;DHT22;56302;52.322;5.926;2023-05-10T03:09:09;12.40;98.80
69189;DHT22;56302;52.322;5.926;2023-05-10T03:11:47;12.40;99.00
69189;DHT22;56302;52.322;5.926;2023-05-10T03:17:06;12.40;99.10
69189;DHT22;56302;52.322;5.926;2023-05-10T03:19:53;12.40;99.10
69189;DHT22;56302;52.322;5.926;2023-05-10T03:22:25;12.40;99.20
69189;DHT22;56302;52.322;5.926;2023-05-10T03:24:55;12.40;99.20
69189;DHT22;56302;52.322;5.926;2023-05-10T03:27:22;12.40;99.20
69189;DHT22;56302;52.322;5.926;2023-05-10T03:29:48;12.40;99.20
69189;DHT22;56302;52.322;5.926;2023-05-10T03:32:16;12.40;99.20
69189;DHT22;56302;52.322;5.926;2023-05-10T03:34:42;12.40;99.20
69189;DHT22;56302;52.322;5.926;2023-05-10T03:37:08;12.40;99.20
69189;DHT22;56302;52.322;5.926;2023-05-10T03:39:34;12.40;99.20
69189;DHT22;56302;52.322;5.926;2023-05-10T03:41:59;12.30;99.20
69189;DHT22;56302;52.322;5.926;2023-05-10T03:44:25;12.30;99.30
69189;DHT22;56302;52.322;5.926;2023-05-10T03:46:50;12.30;99.40
69189;DHT22;56302;52.322;5.926;2023-05-10T03:49:16;12.30;99.40
69189;DHT22;56302;52.322;5.926;2023-05-10T03:51:41;12.30;99.60
69189;DHT22;56302;52.322;5.926;2023-05-10T03:54:07;12.30;99.60
69189;DHT22;56302;52.322;5.926;2023-05-10T03:56:32;12.30;99.60
69189;DHT22;56302;52.322;5.926;2023-05-10T03:58:58;12.30;99.70
69189;DHT22;56302;52.322;5.926;2023-05-10T04:01:23;12.30;99.70
69189;DHT22;56302;52.322;5.926;2023-05-10T04:03:49;12.30;99.70
69189;DHT22;56302;52.322;5.926;2023-05-10T04:06:14;12.30;99.60
69189;DHT22;56302;52.322;5.926;2023-05-10T04:08:40;12.30;99.60
69189;DHT22;56302;52.322;5.926;2023-05-10T04:11:10;12.30;99.60
69189;DHT22;56302;52.322;5.926;2023-05-10T04:13:36;12.40;99.60
69189;DHT22;56302;52.322;5.926;2023-05-10T04:16:02;12.30;99.50
69189;DHT22;56302;52.322;5.926;2023-05-10T04:18:28;12.30;99.60
69189;DHT22;56302;52.322;5.926;2023-05-10T04:20:53;12.30;99.60
69189;DHT22;56302;52.322;5.926;2023-05-10T04:23:19;12.30;99.70
69189;DHT22;56302;52.322;5.926;2023-05-10T04:25:44;12.30;99.70
69189;DHT22;56302;52.322;5.926;2023-05-10T04:28:10;12.30;99.70
69189;DHT22;56302;52.322;5.926;2023-05-10T04:30:35;12.30;99.70
69189;DHT22;56302;52.322;5.926;2023-05-10T04:33:01;12.30;99.70
69189;DHT22;56302;52.322;5.926;2023-05-10T04:35:27;12.30;99.80
69189;DHT22;56302;52.322;5.926;2023-05-10T04:37:53;12.30;99.70
69189;DHT22;56302;52.322;5.926;2023-05-10T04:40:19;12.40;99.70
69189;DHT22;56302;52.322;5.926;2023-05-10T04:42:45;12.40;99.70
69189;DHT22;56302;52.322;5.926;2023-05-10T04:45:11;12.40;99.70
69189;DHT22;56302;52.322;5.926;2023-05-10T04:47:36;12.30;99.70
69189;DHT22;56302;52.322;5.926;2023-05-10T04:50:03;12.40;99.70
69189;DHT22;56302;52.322;5.926;2023-05-10T04:52:28;12.40;99.70
69189;DHT22;56302;52.322;5.926;2023-05-10T04:54:54;12.30;99.80
69189;DHT22;56302;52.322;5.926;2023-05-10T04:57:20;12.30;99.90
69189;DHT22;56302;52.322;5.926;2023-05-10T04:59:45;12.30;99.90
69189;DHT22;56302;52.322;5.926;2023-05-10T05:02:11;12.30;99.90
69189;DHT22;56302;52.322;5.926;2023-05-10T05:04:36;12.40;99.90
69189;DHT22;56302;52.322;5.926;2023-05-10T05:07:02;12.40;99.90
69189;DHT22;56302;52.322;5.926;2023-05-10T05:09:27;12.40;99.90
69189;DHT22;56302;52.322;5.926;2023-05-10T05:11:53;12.40;99.90
69189;DHT22;56302;52.322;5.926;2023-05-10T05:14:18;12.40;99.90
69189;DHT22;56302;52.322;5.926;2023-05-10T05:16:46;12.40;99.90
69189;DHT22;56302;52.322;5.926;2023-05-10T05:19:11;12.40;99.90
69189;DHT22;56302;52.322;5.926;2023-05-10T05:21:37;12.40;99.90
69189;DHT22;56302;52.322;5.926;2023-05-10T05:24:03;12.40;99.90
69189;DHT22;56302;52.322;5.926;2023-05-10T05:26:28;12.40;99.90
69189;DHT22;56302;52.322;5.926;2023-05-10T05:28:54;12.40;99.90
69189;DHT22;56302;52.322;5.926;2023-05-10T05:31:20;12.40;99.90
69189;DHT22;56302;52.322;5.926;2023-05-10T05:33:46;12.40;99.90
69189;DHT22;56302;52.322;5.926;2023-05-10T05:36:11;12.40;99.90
69189;DHT22;56302;52.322;5.926;2023-05-10T05:38:37;12.40;99.90
69189;DHT22;56302;52.322;5.926;2023-05-10T05:41:02;12.40;99.90
69189;DHT22;56302;52.322;5.926;2023-05-10T05:43:28;12.40;99.90
69189;DHT22;56302;52.322;5.926;2023-05-10T05:45:54;12.40;99.90
69189;DHT22;56302;52.322;5.926;2023-05-10T05:48:20;12.40;99.90
69189;DHT22;56302;52.322;5.926;2023-05-10T05:50:45;12.40;99.90
69189;DHT22;56302;52.322;5.926;2023-05-10T05:53:11;12.40;99.90
69189;DHT22;56302;52.322;5.926;2023-05-10T05:55:36;12.50;99.90
69189;DHT22;56302;52.322;5.926;2023-05-10T05:58:02;12.50;99.90
69189;DHT22;56302;52.322;5.926;2023-05-10T06:00:28;12.50;99.90
69189;DHT22;56302;52.322;5.926;2023-05-10T06:02:54;12.50;99.90
69189;DHT22;56302;52.322;5.926;2023-05-10T06:05:19;12.50;99.80
69189;DHT22;56302;52.322;5.926;2023-05-10T06:07:46;12.50;99.80
69189;DHT22;56302;52.322;5.926;2023-05-10T06:10:11;12.40;99.80
69189;DHT22;56302;52.322;5.926;2023-05-10T06:12:37;12.40;99.80
69189;DHT22;56302;52.322;5.926;2023-05-10T06:15:03;12.40;99.90
69189;DHT22;56302;52.322;5.926;2023-05-10T06:17:29;12.40;99.90
69189;DHT22;56302;52.322;5.926;2023-05-10T06:19:55;12.40;99.90
69189;DHT22;56302;52.322;5.926;2023-05-10T06:22:21;12.40;99.90
69189;DHT22;56302;52.322;5.926;2023-05-10T06:24:48;12.30;99.90
69189;DHT22;56302;52.322;5.926;2023-05-10T06:27:14;12.30;99.90
69189;DHT22;56302;52.322;5.926;2023-05-10T06:29:39;12.30;99.90
69189;DHT22;56302;52.322;5.926;2023-05-10T06:32:05;12.30;99.90
69189;DHT22;56302;52.322;5.926;2023-05-10T06:34:30;12.30;99.90
69189;DHT22;56302;52.322;5.926;2023-05-10T06:36:56;12.30;99.90
69189;DHT22;56302;52.322;5.926;2023-05-10T06:39:36;12.40;99.90
69189;DHT22;56302;52.322;5.926;2023-05-10T06:42:02;12.40;99.90
69189;DHT22;56302;52.322;5.926;2023-05-10T06:44:28;12.40;99.90
69189;DHT22;56302;52.322;5.926;2023-05-10T06:46:53;12.50;99.90
69189;DHT22;56302;52.322;5.926;2023-05-10T06:49:20;12.60;99.90
69189;DHT22;56302;52.322;5.926;2023-05-10T06:51:46;12.70;99.90
69189;DHT22;56302;52.322;5.926;2023-05-10T06:54:11;12.80;99.90
69189;DHT22;56302;52.322;5.926;2023-05-10T06:56:36;12.80;99.60
69189;DHT22;56302;52.322;5.926;2023-05-10T06:59:02;12.80;99.30
69189;DHT22;56302;52.322;5.926;2023-05-10T07:01:28;12.70;99.00
69189;DHT22;56302;52.322;5.926;2023-05-10T07:03:54;12.60;99.10
69189;DHT22;56302;52.322;5.926;2023-05-10T07:06:19;12.60;99.10
69189;DHT22;56302;52.322;5.926;2023-05-10T07:08:45;12.60;99.00
69189;DHT22;56302;52.322;5.926;2023-05-10T07:11:10;12.50;99.10
69189;DHT22;56302;52.322;5.926;2023-05-10T07:13:36;12.50;99.10
69189;DHT22;56302;52.322;5.926;2023-05-10T07:16:03;12.50;99.10
69189;DHT22;56302;52.322;5.926;2023-05-10T07:18:29;12.50;99.20
69189;DHT22;56302;52.322;5.926;2023-05-10T07:20:55;12.50;99.20
69189;DHT22;56302;52.322;5.926;2023-05-10T07:23:21;12.50;99.20
69189;DHT22;56302;52.322;5.926;2023-05-10T07:25:50;12.60;99.30
69189;DHT22;56302;52.322;5.926;2023-05-10T07:28:18;12.60;99.20
69189;DHT22;56302;52.322;5.926;2023-05-10T07:30:44;12.60;99.20
69189;DHT22;56302;52.322;5.926;2023-05-10T07:33:10;12.60;99.10
69189;DHT22;56302;52.322;5.926;2023-05-10T07:35:36;12.70;99.00
69189;DHT22;56302;52.322;5.926;2023-05-10T07:38:02;12.70;98.90
69189;DHT22;56302;52.322;5.926;2023-05-10T07:40:28;12.70;98.80
69189;DHT22;56302;52.322;5.926;2023-05-10T07:42:54;12.70;98.80
69189;DHT22;56302;52.322;5.926;2023-05-10T07:45:19;12.70;98.60
69189;DHT22;56302;52.322;5.926;2023-05-10T07:47:45;12.70;98.50
69189;DHT22;56302;52.322;5.926;2023-05-10T07:50:11;12.80;98.40
69189;DHT22;56302;52.322;5.926;2023-05-10T07:52:36;12.80;98.30
69189;DHT22;56302;52.322;5.926;2023-05-10T07:55:02;12.80;98.30
69189;DHT22;56302;52.322;5.926;2023-05-10T07:57:27;12.90;98.30
69189;DHT22;56302;52.322;5.926;2023-05-10T07:59:53;13.00;98.20
69189;DHT22;56302;52.322;5.926;2023-05-10T08:02:18;13.00;98.10
69189;DHT22;56302;52.322;5.926;2023-05-10T08:04:44;13.00;97.90
69189;DHT22;56302;52.322;5.926;2023-05-10T08:07:09;13.10;97.80
69189;DHT22;56302;52.322;5.926;2023-05-10T08:09:36;13.20;98.00
69189;DHT22;56302;52.322;5.926;2023-05-10T08:12:01;13.20;97.80
69189;DHT22;56302;52.322;5.926;2023-05-10T08:14:28;13.40;97.90
69189;DHT22;56302;52.322;5.926;2023-05-10T08:16:54;13.50;97.70
69189;DHT22;56302;52.322;5.926;2023-05-10T08:19:20;13.50;97.40
69189;DHT22;56302;52.322;5.926;2023-05-10T08:21:46;13.50;97.20
69189;DHT22;56302;52.322;5.926;2023-05-10T08:24:12;13.50;96.80
69189;DHT22;56302;52.322;5.926;2023-05-10T08:26:38;13.50;96.60
69189;DHT22;56302;52.322;5.926;2023-05-10T08:29:03;13.60;96.30
69189;DHT22;56302;52.322;5.926;2023-05-10T08:31:29;13.60;96.20
69189;DHT22;56302;52.322;5.926;2023-05-10T08:33:54;13.50;95.80
69189;DHT22;56302;52.322;5.926;2023-05-10T08:36:20;13.50;95.70
69189;DHT22;56302;52.322;5.926;2023-05-10T08:38:50;13.50;95.80
69189;DHT22;56302;52.322;5.926;2023-05-10T08:41:21;13.40;95.90
69189;DHT22;56302;52.322;5.926;2023-05-10T08:43:47;13.50;96.00
69189;DHT22;56302;52.322;5.926;2023-05-10T08:46:17;13.50;96.10
69189;DHT22;56302;52.322;5.926;2023-05-10T08:48:48;13.60;96.00
69189;DHT22;56302;52.322;5.926;2023-05-10T08:51:18;13.70;95.80
69189;DHT22;56302;52.322;5.926;2023-05-10T08:53:44;13.80;95.80
69189;DHT22;56302;52.322;5.926;2023-05-10T08:56:09;13.80;95.50
69189;DHT22;56302;52.322;5.926;2023-05-10T08:58:36;13.80;95.20
69189;DHT22;56302;52.322;5.926;2023-05-10T09:01:02;13.90;95.10
69189;DHT22;56302;52.322;5.926;2023-05-10T09:03:29;13.90;94.80
69189;DHT22;56302;52.322;5.926;2023-05-10T09:05:55;13.90;94.70
69189;DHT22;56302;52.322;5.926;2023-05-10T09:08:24;14.00;94.60
69189;DHT22;56302;52.322;5.926;2023-05-10T09:10:57;13.90;94.30
69189;DHT22;56302;52.322;5.926;2023-05-10T09:13:23;14.00;94.30
69189;DHT22;56302;52.322;5.926;2023-05-10T09:15:50;14.00;94.30
69189;DHT22;56302;52.322;5.926;2023-05-10T09:18:16;13.90;93.80
69189;DHT22;56302;52.322;5.926;2023-05-10T09:20:41;13.90;93.70
69189;DHT22;56302;52.322;5.926;2023-05-10T09:23:08;13.90;93.40
69189;DHT22;56302;52.322;5.926;2023-05-10T09:25:34;13.80;93.10
69189;DHT22;56302;52.322;5.926;2023-05-10T09:28:00;13.80;93.40
69189;DHT22;56302;52.322;5.926;2023-05-10T09:30:27;13.90;93.90
69189;DHT22;56302;52.322;5.926;2023-05-10T09:32:54;14.00;93.70
69189;DHT22;56302;52.322;5.926;2023-05-10T09:35:25;14.00;93.40
69189;DHT22;56302;52.322;5.926;2023-05-10T09:38:01;14.10;93.60
69189;DHT22;56302;52.322;5.926;2023-05-10T09:40:28;14.20;93.40
69189;DHT22;56302;52.322;5.926;2023-05-10T09:45:28;14.30;92.60
69189;DHT22;56302;52.322;5.926;2023-05-10T09:47:55;14.30;92.10
69189;DHT22;56302;52.322;5.926;2023-05-10T09:50:21;14.50;92.70
69189;DHT22;56302;52.322;5.926;2023-05-10T09:52:54;14.50;91.30
69189;DHT22;56302;52.322;5.926;2023-05-10T09:55:22;14.70;91.50
69189;DHT22;56302;52.322;5.926;2023-05-10T09:57:49;14.80;90.90
69189;DHT22;56302;52.322;5.926;2023-05-10T10:00:18;15.00;90.50
69189;DHT22;56302;52.322;5.926;2023-05-10T10:02:45;15.20;89.30
69189;DHT22;56302;52.322;5.926;2023-05-10T10:05:11;15.30;88.40
69189;DHT22;56302;52.322;5.926;2023-05-10T10:07:37;15.40;86.80
69189;DHT22;56302;52.322;5.926;2023-05-10T10:10:03;15.70;87.00
69189;DHT22;56302;52.322;5.926;2023-05-10T10:12:30;15.80;86.10
69189;DHT22;56302;52.322;5.926;2023-05-10T10:14:56;15.80;85.10
69189;DHT22;56302;52.322;5.926;2023-05-10T10:17:23;15.70;85.90
69189;DHT22;56302;52.322;5.926;2023-05-10T10:19:52;15.60;85.70
69189;DHT22;56302;52.322;5.926;2023-05-10T10:22:17;15.30;86.40
69189;DHT22;56302;52.322;5.926;2023-05-10T10:24:43;15.30;86.90
69189;DHT22;56302;52.322;5.926;2023-05-10T10:27:31;15.30;87.00
69189;DHT22;56302;52.322;5.926;2023-05-10T10:30:22;15.10;87.70
69189;DHT22;56302;52.322;5.926;2023-05-10T10:35:36;15.10;88.40
69189;DHT22;56302;52.322;5.926;2023-05-10T10:38:02;15.00;88.20
69189;DHT22;56302;52.322;5.926;2023-05-10T10:40:30;14.80;88.50
69189;DHT22;56302;52.322;5.926;2023-05-10T10:42:56;14.90;89.60
69189;DHT22;56302;52.322;5.926;2023-05-10T10:45:23;14.90;89.40
69189;DHT22;56302;52.322;5.926;2023-05-10T10:47:53;14.80;88.70
69189;DHT22;56302;52.322;5.926;2023-05-10T10:50:19;14.80;88.90
69189;DHT22;56302;52.322;5.926;2023-05-10T10:52:45;14.90;89.30
69189;DHT22;56302;52.322;5.926;2023-05-10T10:55:18;14.80;88.80
69189;DHT22;56302;52.322;5.926;2023-05-10T10:57:50;14.80;88.40
69189;DHT22;56302;52.322;5.926;2023-05-10T11:00:38;14.80;88.70
69189;DHT22;56302;52.322;5.926;2023-05-10T11:03:10;14.80;88.60
69189;DHT22;56302;52.322;5.926;2023-05-10T11:05:50;14.90;88.80
69189;DHT22;56302;52.322;5.926;2023-05-10T11:08:28;15.00;88.70
69189;DHT22;56302;52.322;5.926;2023-05-10T11:11:03;15.10;88.30
69189;DHT22;56302;52.322;5.926;2023-05-10T11:13:33;15.20;87.40
69189;DHT22;56302;52.322;5.926;2023-05-10T11:16:16;15.30;87.30
69189;DHT22;56302;52.322;5.926;2023-05-10T11:19:07;15.40;86.90
69189;DHT22;56302;52.322;5.926;2023-05-10T11:21:34;15.50;86.70
69189;DHT22;56302;52.322;5.926;2023-05-10T11:24:01;15.50;86.10
69189;DHT22;56302;52.322;5.926;2023-05-10T11:26:33;15.50;85.80
69189;DHT22;56302;52.322;5.926;2023-05-10T11:28:59;15.40;85.50
69189;DHT22;56302;52.322;5.926;2023-05-10T11:31:26;15.40;86.80
69189;DHT22;56302;52.322;5.926;2023-05-10T11:33:54;15.40;86.90
69189;DHT22;56302;52.322;5.926;2023-05-10T11:36:23;15.40;86.90
69189;DHT22;56302;52.322;5.926;2023-05-10T11:38:48;15.40;86.50
69189;DHT22;56302;52.322;5.926;2023-05-10T11:41:17;15.50;86.90
69189;DHT22;56302;52.322;5.926;2023-05-10T11:43:43;15.50;87.00
69189;DHT22;56302;52.322;5.926;2023-05-10T11:46:12;15.60;87.20
69189;DHT22;56302;52.322;5.926;2023-05-10T11:48:41;15.60;87.00
69189;DHT22;56302;52.322;5.926;2023-05-10T11:51:09;15.70;85.80
69189;DHT22;56302;52.322;5.926;2023-05-10T11:53:35;15.60;84.80
69189;DHT22;56302;52.322;5.926;2023-05-10T11:56:08;15.80;86.10
69189;DHT22;56302;52.322;5.926;2023-05-10T11:58:36;16.00;84.60
69189;DHT22;56302;52.322;5.926;2023-05-10T12:01:02;15.90;82.40
69189;DHT22;56302;52.322;5.926;2023-05-10T12:03:28;15.90;83.30
69189;DHT22;56302;52.322;5.926;2023-05-10T12:05:55;15.90;82.30
69189;DHT22;56302;52.322;5.926;2023-05-10T12:08:23;15.70;82.70
69189;DHT22;56302;52.322;5.926;2023-05-10T12:10:48;15.70;84.00
69189;DHT22;56302;52.322;5.926;2023-05-10T12:13:14;15.80;83.20
69189;DHT22;56302;52.322;5.926;2023-05-10T12:15:41;15.90;84.10
69189;DHT22;56302;52.322;5.926;2023-05-10T12:18:11;15.90;82.70
69189;DHT22;56302;52.322;5.926;2023-05-10T12:20:38;16.00;83.50
69189;DHT22;56302;52.322;5.926;2023-05-10T12:23:04;16.00;81.90
69189;DHT22;56302;52.322;5.926;2023-05-10T12:25:32;15.90;83.40
69189;DHT22;56302;52.322;5.926;2023-05-10T12:28:00;16.00;83.30
69189;DHT22;56302;52.322;5.926;2023-05-10T12:30:34;16.00;82.80
69189;DHT22;56302;52.322;5.926;2023-05-10T12:33:02;16.20;83.90
69189;DHT22;56302;52.322;5.926;2023-05-10T12:35:31;16.40;83.10
69189;DHT22;56302;52.322;5.926;2023-05-10T12:37:57;16.50;82.80
69189;DHT22;56302;52.322;5.926;2023-05-10T12:40:23;16.60;81.90
69189;DHT22;56302;52.322;5.926;2023-05-10T12:42:48;16.70;80.30
69189;DHT22;56302;52.322;5.926;2023-05-10T12:45:14;16.60;80.90
69189;DHT22;56302;52.322;5.926;2023-05-10T12:47:39;16.60;80.10
69189;DHT22;56302;52.322;5.926;2023-05-10T12:50:05;16.60;79.40
69189;DHT22;56302;52.322;5.926;2023-05-10T12:52:31;16.70;80.10
69189;DHT22;56302;52.322;5.926;2023-05-10T12:54:58;16.80;79.70
69189;DHT22;56302;52.322;5.926;2023-05-10T12:57:24;16.90;81.00
69189;DHT22;56302;52.322;5.926;2023-05-10T12:59:49;17.00;79.90
69189;DHT22;56302;52.322;5.926;2023-05-10T13:02:15;16.80;78.80
69189;DHT22;56302;52.322;5.926;2023-05-10T13:04:46;16.50;78.50
69189;DHT22;56302;52.322;5.926;2023-05-10T13:07:12;16.30;78.90
69189;DHT22;56302;52.322;5.926;2023-05-10T13:09:38;16.20;81.20
69189;DHT22;56302;52.322;5.926;2023-05-10T13:12:03;16.00;80.70
69189;DHT22;56302;52.322;5.926;2023-05-10T13:14:29;15.90;81.70
69189;DHT22;56302;52.322;5.926;2023-05-10T13:16:55;16.00;83.00
69189;DHT22;56302;52.322;5.926;2023-05-10T13:19:21;16.10;83.10
69189;DHT22;56302;52.322;5.926;2023-05-10T13:21:46;16.10;82.90
69189;DHT22;56302;52.322;5.926;2023-05-10T13:24:12;16.10;81.70
69189;DHT22;56302;52.322;5.926;2023-05-10T13:26:42;16.00;81.70
69189;DHT22;56302;52.322;5.926;2023-05-10T13:29:08;15.90;83.10
69189;DHT22;56302;52.322;5.926;2023-05-10T13:31:34;16.00;83.50
69189;DHT22;56302;52.322;5.926;2023-05-10T13:34:00;16.10;80.70
69189;DHT22;56302;52.322;5.926;2023-05-10T13:36:26;16.10;81.60
69189;DHT22;56302;52.322;5.926;2023-05-10T13:38:51;16.20;82.30
69189;DHT22;56302;52.322;5.926;2023-05-10T13:41:17;16.30;81.60
69189;DHT22;56302;52.322;5.926;2023-05-10T13:43:42;16.40;82.80
69189;DHT22;56302;52.322;5.926;2023-05-10T13:46:08;16.40;81.50
69189;DHT22;56302;52.322;5.926;2023-05-10T13:48:33;16.50;81.10
69189;DHT22;56302;52.322;5.926;2023-05-10T13:50:59;16.50;78.50
69189;DHT22;56302;52.322;5.926;2023-05-10T13:53:25;16.40;77.50
69189;DHT22;56302;52.322;5.926;2023-05-10T13:55:50;16.40;82.30
69189;DHT22;56302;52.322;5.926;2023-05-10T13:58:16;16.30;79.00
69189;DHT22;56302;52.322;5.926;2023-05-10T14:00:41;16.30;80.50
69189;DHT22;56302;52.322;5.926;2023-05-10T14:03:07;16.20;79.40
69189;DHT22;56302;52.322;5.926;2023-05-10T14:05:34;16.20;81.60
69189;DHT22;56302;52.322;5.926;2023-05-10T14:08:00;16.20;80.20
69189;DHT22;56302;52.322;5.926;2023-05-10T14:10:25;16.20;80.20
69189;DHT22;56302;52.322;5.926;2023-05-10T14:12:51;16.20;80.40
69189;DHT22;56302;52.322;5.926;2023-05-10T14:15:16;16.00;79.30
69189;DHT22;56302;52.322;5.926;2023-05-10T14:17:42;15.90;80.70
69189;DHT22;56302;52.322;5.926;2023-05-10T14:20:07;16.00;80.70
69189;DHT22;56302;52.322;5.926;2023-05-10T14:22:33;16.00;81.40
69189;DHT22;56302;52.322;5.926;2023-05-10T14:24:59;16.00;79.70
69189;DHT22;56302;52.322;5.926;2023-05-10T14:27:25;15.90;80.80
69189;DHT22;56302;52.322;5.926;2023-05-10T14:29:50;15.90;81.20
69189;DHT22;56302;52.322;5.926;2023-05-10T14:32:16;16.10;81.30
69189;DHT22;56302;52.322;5.926;2023-05-10T14:34:42;16.30;80.50
69189;DHT22;56302;52.322;5.926;2023-05-10T14:37:10;16.40;80.30
69189;DHT22;56302;52.322;5.926;2023-05-10T14:39:36;16.40;76.60
69189;DHT22;56302;52.322;5.926;2023-05-10T14:42:02;16.40;77.30
69189;DHT22;56302;52.322;5.926;2023-05-10T14:44:28;16.20;79.30
69189;DHT22;56302;52.322;5.926;2023-05-10T14:46:53;16.20;76.70
69189;DHT22;56302;52.322;5.926;2023-05-10T14:49:19;16.10;75.90
69189;DHT22;56302;52.322;5.926;2023-05-10T14:51:44;16.30;78.70
69189;DHT22;56302;52.322;5.926;2023-05-10T14:54:10;16.40;81.10
69189;DHT22;56302;52.322;5.926;2023-05-10T14:56:36;16.70;78.90
69189;DHT22;56302;52.322;5.926;2023-05-10T14:59:03;16.70;76.10
69189;DHT22;56302;52.322;5.926;2023-05-10T15:01:29;16.70;76.50
69189;DHT22;56302;52.322;5.926;2023-05-10T15:03:54;16.80;78.30
69189;DHT22;56302;52.322;5.926;2023-05-10T15:06:29;16.80;78.40
69189;DHT22;56302;52.322;5.926;2023-05-10T15:08:55;17.00;80.20
69189;DHT22;56302;52.322;5.926;2023-05-10T15:11:21;17.20;77.60
69189;DHT22;56302;52.322;5.926;2023-05-10T15:13:46;17.30;76.80
69189;DHT22;56302;52.322;5.926;2023-05-10T15:16:12;17.30;76.00
69189;DHT22;56302;52.322;5.926;2023-05-10T15:18:37;17.00;71.70
69189;DHT22;56302;52.322;5.926;2023-05-10T15:21:03;16.80;76.10
69189;DHT22;56302;52.322;5.926;2023-05-10T15:23:28;16.80;78.20
69189;DHT22;56302;52.322;5.926;2023-05-10T15:25:55;16.80;77.90
69189;DHT22;56302;52.322;5.926;2023-05-10T15:28:21;16.90;80.00
69189;DHT22;56302;52.322;5.926;2023-05-10T15:30:46;16.60;74.90
69189;DHT22;56302;52.322;5.926;2023-05-10T15:33:12;16.20;77.00
69189;DHT22;56302;52.322;5.926;2023-05-10T15:35:37;16.10;76.90
69189;DHT22;56302;52.322;5.926;2023-05-10T15:38:05;16.10;79.40
69189;DHT22;56302;52.322;5.926;2023-05-10T15:40:31;16.00;79.90
69189;DHT22;56302;52.322;5.926;2023-05-10T15:42:56;16.10;81.60
69189;DHT22;56302;52.322;5.926;2023-05-10T15:45:22;16.10;81.10
69189;DHT22;56302;52.322;5.926;2023-05-10T15:47:47;16.10;81.80